Time;durP1;ratioP1;P1;durP2;ratioP2;P2;SDS_P1;SDS_P2;PMS_P1;PMS_P2;Temp;Humidity;BMP_temperature;BMP_pressure;BME280_temperature;BME280_humidity;BME280_pressure;Samples;Min_cycle;Max_cycle;Signal;HPM_P1;HPM_P2
2021/12/02 00:01:12;;;;;;;;;;;;;;;11.38;50.89;98105.19;4466032;32;33042;-70
2021/12/02 00:03:41;;;;;;;;;;;;;;;11.85;49.67;98110.09;4442977;32;34199;-70
2021/12/02 00:06:09;;;;;;;;;;;;;;;12.14;48.74;98108.84;4469722;32;34304;-69
2021/12/02 00:08:36;;;;;;;;;;;;;;;12.37;48.08;98117.94;4469134;32;31907;-69
2021/12/02 00:11:04;;;;;;;;;;;;;;;12.57;47.63;98116.59;4466048;32;34233;-70
2021/12/02 00:13:42;;;;;;;;;;;;;;;12.77;47.08;98114.41;4466408;32;34145;-69
2021/12/02 00:16:21;;;;;;;;;;;;;;;12.92;46.81;98119.94;4472557;32;33982;-69
2021/12/02 00:21:24;;;;;;;;;;;;;;;12.98;46.72;98110.37;4474532;32;34054;-70
2021/12/02 00:23:53;;;;;;;;;;;;;;;12.69;47.57;98114.44;4469610;32;34312;-68
2021/12/02 00:26:21;;;;;;;;;;;;;;;13.10;46.46;98127.84;4475031;32;34709;-69
2021/12/02 00:28:52;;;;;;;;;;;;;;;13.23;45.98;98120.09;4467449;32;34125;-70
2021/12/02 00:31:20;;;;;;;;;;;;;;;13.31;45.52;98115.72;4470585;32;34272;-70
2021/12/02 00:33:49;;;;;;;;;;;;;;;13.34;45.29;98115.38;4475702;32;35479;-72
2021/12/02 00:36:18;;;;;;;;;;;;;;;13.32;45.41;98110.16;4475243;32;33916;-69
2021/12/02 00:38:47;;;;;;;;;;;;;;;13.52;44.97;98102.56;4472351;32;33033;-70
2021/12/02 00:41:15;;;;;;;;;;;;;;;13.56;44.76;98105.75;4465946;32;33866;-70
2021/12/02 00:43:43;;;;;;;;;;;;;;;13.64;44.55;98103.87;4475713;32;35228;-70
2021/12/02 00:46:12;;;;;;;;;;;;;;;13.38;44.95;98109.47;4470929;32;33959;-70
2021/12/02 00:48:41;;;;;;;;;;;;;;;12.93;46.04;98102.00;4474843;32;32291;-70
2021/12/02 00:51:09;;;;;;;;;;;;;;;13.09;45.65;98104.66;4474281;32;35006;-68
2021/12/02 00:53:38;;;;;;;;;;;;;;;11.80;49.03;98109.72;4477811;32;34355;-70
2021/12/02 00:56:06;;;;;;;;;;;;;;;12.20;48.23;98098.28;4473862;32;35030;-67
2021/12/02 00:58:33;;;;;;;;;;;;;;;11.93;48.67;98098.56;4474081;32;33383;-68
2021/12/02 01:01:01;;;;;;;;;;;;;;;12.45;47.66;98098.31;4471680;32;35120;-68
2021/12/02 01:03:35;;;;;;;;;;;;;;;12.50;47.65;98107.53;4459344;32;36560;-68
2021/12/02 01:06:04;;;;;;;;;;;;;;;12.09;48.53;98104.78;4471999;32;34521;-67
2021/12/02 01:08:32;;;;;;;;;;;;;;;12.67;47.13;98107.53;4466714;32;34561;-67
2021/12/02 01:10:59;;;;;;;;;;;;;;;12.96;46.47;98107.84;4467565;32;35179;-68
2021/12/02 01:13:26;;;;;;;;;;;;;;;12.82;46.75;98111.25;4472162;32;33953;-70
2021/12/02 01:15:54;;;;;;;;;;;;;;;12.60;47.11;98110.06;4473168;32;35243;-68
2021/12/02 01:18:22;;;;;;;;;;;;;;;13.01;46.03;98113.56;4469416;32;33193;-68
2021/12/02 01:20:51;;;;;;;;;;;;;;;13.26;45.55;98116.25;4476068;32;33642;-68
2021/12/02 01:23:20;;;;;;;;;;;;;;;12.70;46.77;98108.03;4472879;32;34484;-68
2021/12/02 01:25:54;;;;;;;;;;;;;;;13.22;45.51;98110.31;4474168;32;34175;-68
2021/12/02 01:28:22;;;;;;;;;;;;;;;13.16;45.53;98113.72;4476752;32;33746;-68
2021/12/02 01:30:50;;;;;;;;;;;;;;;13.17;45.76;98103.81;4474695;32;35306;-69
2021/12/02 01:33:19;;;;;;;;;;;;;;;13.47;45.10;98100.38;4465599;32;32956;-67
2021/12/02 01:35:51;;;;;;;;;;;;;;;13.56;44.70;98100.38;4475569;32;34126;-69
2021/12/02 01:38:18;;;;;;;;;;;;;;;13.49;44.68;98095.69;4447881;32;896685;-67
2021/12/02 01:40:46;;;;;;;;;;;;;;;13.55;44.58;98090.63;4452655;32;34905;-68
2021/12/02 01:43:15;;;;;;;;;;;;;;;13.05;45.74;98088.03;4472551;32;33903;-68
2021/12/02 01:45:44;;;;;;;;;;;;;;;13.48;45.02;98087.78;4476403;32;33981;-67
2021/12/02 01:48:15;;;;;;;;;;;;;;;13.53;44.79;98085.44;4473794;32;32149;-68
2021/12/02 01:50:43;;;;;;;;;;;;;;;13.15;45.77;98082.47;4475910;32;33991;-68
2021/12/02 01:53:13;;;;;;;;;;;;;;;12.94;45.94;98082.22;4475653;32;35468;-67
2021/12/02 01:55:42;;;;;;;;;;;;;;;13.03;46.19;98075.78;4472719;32;34426;-67
2021/12/02 01:58:14;;;;;;;;;;;;;;;13.16;45.62;98072.56;4468443;32;34685;-67
2021/12/02 02:00:45;;;;;;;;;;;;;;;12.86;46.53;98074.97;4458543;32;34034;-67
2021/12/02 02:03:14;;;;;;;;;;;;;;;12.74;46.29;98074.47;4470401;32;34564;-68
2021/12/02 02:05:42;;;;;;;;;;;;;;;13.11;45.57;98069.56;4467703;32;35222;-67
2021/12/02 02:08:10;;;;;;;;;;;;;;;13.43;44.73;98071.34;4466823;32;33326;-68
2021/12/02 02:10:39;;;;;;;;;;;;;;;13.61;44.46;98081.84;4472272;32;33661;-70
2021/12/02 02:13:09;;;;;;;;;;;;;;;12.58;46.26;98071.81;4472452;32;35240;-71
2021/12/02 02:15:37;;;;;;;;;;;;;;;12.32;47.39;98080.03;4471047;32;34271;-72
2021/12/02 02:18:40;;;;;;;;;;;;;;;13.26;45.10;98079.47;4468304;32;33122;-70
2021/12/02 02:23:30;;;;;;;;;;;;;;;13.09;45.45;98083.16;4473564;32;34878;-70
2021/12/02 02:25:58;;;;;;;;;;;;;;;13.32;45.14;98077.09;4474030;32;33028;-71
2021/12/02 02:28:26;;;;;;;;;;;;;;;13.54;44.49;98065.59;4471976;32;34053;-72
2021/12/02 02:30:54;;;;;;;;;;;;;;;13.30;44.94;98061.16;4473223;32;32682;-71
2021/12/02 02:33:22;;;;;;;;;;;;;;;13.64;44.12;98058.19;4479380;32;34278;-71
2021/12/02 02:35:50;;;;;;;;;;;;;;;13.74;43.99;98052.59;4470852;32;33855;-70
2021/12/02 02:38:18;;;;;;;;;;;;;;;13.89;43.50;98053.47;4453117;32;33292;-72
2021/12/02 02:40:46;;;;;;;;;;;;;;;13.91;43.32;98053.31;4474569;32;34315;-70
2021/12/02 02:43:21;;;;;;;;;;;;;;;13.86;43.82;98047.63;4479988;32;32939;-73
2021/12/02 02:45:49;;;;;;;;;;;;;;;13.59;44.36;98052.47;4472237;32;35100;-72
2021/12/02 02:48:16;;;;;;;;;;;;;;;13.63;44.34;98053.78;4478027;32;32283;-70
2021/12/02 02:50:44;;;;;;;;;;;;;;;13.74;43.99;98068.72;4471895;32;33976;-71
2021/12/02 02:53:15;;;;;;;;;;;;;;;13.69;44.14;98063.84;4470677;32;34162;-70
2021/12/02 02:55:50;;;;;;;;;;;;;;;13.49;44.66;98058.06;4469978;32;34202;-71
2021/12/02 02:58:30;;;;;;;;;;;;;;;13.42;44.54;98058.94;4460155;32;34645;-71
2021/12/02 03:01:47;;;;;;;;;;;;;;;13.57;44.26;98059.88;4471924;32;35432;-71
2021/12/02 03:06:27;;;;;;;;;;;;;;;13.50;44.39;98066.97;4475065;32;35066;-69
2021/12/02 03:09:06;;;;;;;;;;;;;;;13.83;43.71;98059.56;4455876;32;34379;-70
2021/12/02 03:11:53;;;;;;;;;;;;;;;13.41;45.24;98058.06;4473225;32;35271;-68
2021/12/02 03:14:35;;;;;;;;;;;;;;;13.96;43.65;98059.00;4462845;32;34521;-68
2021/12/02 03:17:03;;;;;;;;;;;;;;;13.95;43.55;98060.00;4463037;32;34212;-68
2021/12/02 03:19:30;;;;;;;;;;;;;;;13.86;43.82;98061.91;4465879;32;33088;-70
2021/12/02 03:21:57;;;;;;;;;;;;;;;14.04;43.27;98060.81;4464179;32;33038;-69
2021/12/02 03:24:25;;;;;;;;;;;;;;;13.85;44.08;98071.00;4469830;32;34268;-68
2021/12/02 03:26:52;;;;;;;;;;;;;;;14.34;42.44;98070.69;4476187;32;34908;-67
2021/12/02 03:29:19;;;;;;;;;;;;;;;14.04;43.06;98075.09;4476788;32;32868;-70
2021/12/02 03:31:47;;;;;;;;;;;;;;;13.83;43.75;98074.88;4469756;32;34074;-68
2021/12/02 03:34:15;;;;;;;;;;;;;;;14.12;43.26;98068.81;4468334;32;34333;-68
2021/12/02 03:36:43;;;;;;;;;;;;;;;14.29;42.67;98074.94;4479922;32;34133;-70
2021/12/02 03:39:10;;;;;;;;;;;;;;;14.20;42.85;98068.78;4478518;32;33613;-68
2021/12/02 03:41:39;;;;;;;;;;;;;;;14.47;42.03;98067.38;4465712;32;35078;-68
2021/12/02 03:44:06;;;;;;;;;;;;;;;14.21;42.98;98071.28;4466053;32;34158;-67
2021/12/02 03:46:34;;;;;;;;;;;;;;;14.26;43.36;98061.84;4468404;32;35229;-67
2021/12/02 03:49:02;;;;;;;;;;;;;;;14.26;43.26;98062.69;4474711;32;33630;-69
2021/12/02 03:51:30;;;;;;;;;;;;;;;14.16;43.37;98056.69;4471829;32;33854;-69
2021/12/02 03:53:57;;;;;;;;;;;;;;;14.16;43.69;98051.31;4467809;32;35456;-71
2021/12/02 03:56:26;;;;;;;;;;;;;;;14.33;43.25;98054.72;4476925;32;32996;-69
2021/12/02 03:58:53;;;;;;;;;;;;;;;14.49;43.08;98062.69;4477528;32;33368;-70
2021/12/02 04:01:21;;;;;;;;;;;;;;;14.83;41.79;98062.25;4454952;32;35385;-71
2021/12/02 04:03:49;;;;;;;;;;;;;;;14.75;42.47;98058.78;4473199;32;34099;-69
2021/12/02 04:06:16;;;;;;;;;;;;;;;14.72;42.57;98049.22;4474181;32;34254;-70
2021/12/02 04:08:51;;;;;;;;;;;;;;;14.96;41.84;98066.16;4475136;32;33153;-70
2021/12/02 04:16:51;;;;;;;;;;;;;;;15.14;41.54;98075.56;4474787;32;34004;-70
2021/12/02 04:19:19;;;;;;;;;;;;;;;15.07;42.01;98073.78;4478335;32;34285;-70
2021/12/02 04:21:46;;;;;;;;;;;;;;;14.99;42.15;98077.41;4475165;32;34521;-70
2021/12/02 04:24:14;;;;;;;;;;;;;;;14.86;42.68;98074.50;4472237;32;34330;-70
2021/12/02 04:26:43;;;;;;;;;;;;;;;14.51;43.80;98079.53;4474392;32;34366;-72
2021/12/02 04:29:11;;;;;;;;;;;;;;;14.98;42.19;98077.59;4467750;32;33612;-73
2021/12/02 04:31:44;;;;;;;;;;;;;;;15.12;41.91;98083.00;4460742;32;33718;-72
2021/12/02 04:34:12;;;;;;;;;;;;;;;15.10;41.94;98076.97;4460624;32;34406;-73
2021/12/02 04:36:40;;;;;;;;;;;;;;;14.88;42.47;98078.69;4460807;32;32704;-72
2021/12/02 04:39:07;;;;;;;;;;;;;;;15.01;42.36;98067.28;4474295;32;33382;-74
2021/12/02 04:41:35;;;;;;;;;;;;;;;14.41;43.30;98066.28;4466145;32;33960;-72
2021/12/02 04:44:02;;;;;;;;;;;;;;;14.91;42.61;98069.41;4473579;32;33115;-73
2021/12/02 04:46:30;;;;;;;;;;;;;;;14.94;42.45;98069.03;4467863;32;35233;-71
2021/12/02 04:48:58;;;;;;;;;;;;;;;15.01;42.41;98061.88;4455123;32;33228;-71
2021/12/02 04:51:26;;;;;;;;;;;;;;;15.03;42.23;98054.47;4474175;32;36773;-70
2021/12/02 04:53:53;;;;;;;;;;;;;;;14.98;42.38;98064.94;4476769;32;35403;-71
2021/12/02 04:56:21;;;;;;;;;;;;;;;15.00;42.51;98065.63;4474377;32;33971;-71
2021/12/02 04:58:48;;;;;;;;;;;;;;;14.82;43.02;98068.62;4474848;32;33468;-74
2021/12/02 05:01:15;;;;;;;;;;;;;;;15.07;42.19;98068.41;4475165;32;34230;-72
2021/12/02 05:03:43;;;;;;;;;;;;;;;15.08;42.07;98062.81;4473216;32;35135;-72
2021/12/02 05:06:14;;;;;;;;;;;;;;;15.09;41.99;98069.06;4474855;32;34397;-71
2021/12/02 05:08:41;;;;;;;;;;;;;;;15.08;42.25;98068.22;4473499;32;33405;-73
2021/12/02 05:11:09;;;;;;;;;;;;;;;15.06;42.58;98077.53;4474163;32;33591;-72
2021/12/02 05:13:36;;;;;;;;;;;;;;;14.98;42.49;98086.50;4479210;32;32794;-70
2021/12/02 05:16:03;;;;;;;;;;;;;;;14.97;42.91;98100.16;4475877;32;34607;-69
2021/12/02 05:18:31;;;;;;;;;;;;;;;14.99;42.61;98093.59;4468825;32;33602;-70
2021/12/02 05:21:00;;;;;;;;;;;;;;;14.99;42.98;98098.97;4470189;32;33960;-70
2021/12/02 05:23:27;;;;;;;;;;;;;;;14.77;43.45;98073.75;4468661;32;34203;-71
2021/12/02 05:25:54;;;;;;;;;;;;;;;15.04;42.97;98088.47;4475229;32;34108;-71
2021/12/02 05:28:22;;;;;;;;;;;;;;;14.86;43.29;98078.03;4471686;32;34551;-70
2021/12/02 05:30:49;;;;;;;;;;;;;;;14.78;43.71;98075.41;4476190;32;33890;-71
2021/12/02 05:33:16;;;;;;;;;;;;;;;14.94;43.76;98069.03;4475165;32;34029;-69
2021/12/02 05:35:45;;;;;;;;;;;;;;;15.14;43.00;98072.87;4475519;32;34139;-69
2021/12/02 05:38:12;;;;;;;;;;;;;;;14.67;44.32;98067.78;4476754;32;33435;-69
2021/12/02 05:40:40;;;;;;;;;;;;;;;14.68;44.50;98078.34;4471727;32;34821;-70
2021/12/02 05:43:07;;;;;;;;;;;;;;;14.86;44.30;98074.50;4476461;32;34341;-70
2021/12/02 05:45:34;;;;;;;;;;;;;;;14.17;46.04;98067.28;4475828;32;33813;-70
2021/12/02 05:48:02;;;;;;;;;;;;;;;14.82;44.58;98065.94;4476548;32;33411;-70
2021/12/02 05:50:29;;;;;;;;;;;;;;;15.00;44.25;98070.16;4477779;32;34079;-69
2021/12/02 05:52:56;;;;;;;;;;;;;;;14.78;44.72;98069.19;4470503;32;34393;-69
2021/12/02 05:55:24;;;;;;;;;;;;;;;14.85;44.70;98062.06;4475675;32;34070;-70
2021/12/02 05:57:51;;;;;;;;;;;;;;;14.65;45.37;98059.88;4478078;32;33395;-69
2021/12/02 06:00:18;;;;;;;;;;;;;;;14.97;44.29;98065.16;4470561;32;34323;-69
2021/12/02 06:02:46;;;;;;;;;;;;;;;14.88;44.53;98069.78;4476838;32;34088;-70
2021/12/02 06:05:19;;;;;;;;;;;;;;;14.37;45.78;98059.56;4477426;32;34928;-70
2021/12/02 06:07:49;;;;;;;;;;;;;;;14.70;45.14;98056.63;4469086;32;34437;-71
2021/12/02 06:10:17;;;;;;;;;;;;;;;14.53;45.86;98055.94;4469851;32;34152;-69
2021/12/02 06:12:44;;;;;;;;;;;;;;;14.70;45.39;98056.63;4468456;32;34213;-70
2021/12/02 06:15:12;;;;;;;;;;;;;;;14.71;45.08;98058.31;4474721;32;34266;-70
2021/12/02 06:17:40;;;;;;;;;;;;;;;14.62;45.48;98054.03;4472686;32;33768;-70
2021/12/02 06:20:08;;;;;;;;;;;;;;;14.53;46.12;98055.94;4477724;32;34002;-69
2021/12/02 06:22:35;;;;;;;;;;;;;;;14.63;45.71;98055.69;4479156;32;35492;-69
2021/12/02 06:27:40;;;;;;;;;;;;;;;14.65;45.56;98062.56;4476175;32;34469;-69
2021/12/02 06:30:09;;;;;;;;;;;;;;;14.38;46.23;98074.72;4462601;32;34380;-69
2021/12/02 06:32:36;;;;;;;;;;;;;;;14.38;46.30;98066.63;4472594;32;34293;-70
2021/12/02 06:35:04;;;;;;;;;;;;;;;13.91;47.27;98062.22;4475986;32;32831;-69
2021/12/02 06:37:32;;;;;;;;;;;;;;;13.62;48.21;98062.06;4474856;32;33392;-69
2021/12/02 06:39:59;;;;;;;;;;;;;;;13.98;47.33;98052.44;4475232;32;34295;-68
2021/12/02 06:42:27;;;;;;;;;;;;;;;14.21;46.56;98055.13;4469722;32;34201;-69
2021/12/02 06:44:56;;;;;;;;;;;;;;;14.30;46.17;98060.47;4471719;32;34301;-70
2021/12/02 06:47:29;;;;;;;;;;;;;;;14.15;46.90;98063.91;4475449;32;33279;-69
2021/12/02 06:50:00;;;;;;;;;;;;;;;14.22;47.16;98072.09;4473257;32;35068;-71
2021/12/02 06:52:28;;;;;;;;;;;;;;;14.31;47.20;98067.50;4467072;32;33439;-70
2021/12/02 06:54:55;;;;;;;;;;;;;;;14.68;46.04;98072.97;4472656;32;34310;-71
2021/12/02 06:57:23;;;;;;;;;;;;;;;14.46;46.50;98084.56;4476500;32;33785;-71
2021/12/02 06:59:50;;;;;;;;;;;;;;;14.48;46.06;98085.22;4466678;32;33994;-70
2021/12/02 07:02:18;;;;;;;;;;;;;;;13.69;47.22;98088.03;4479491;32;34334;-70
2021/12/02 07:04:46;;;;;;;;;;;;;;;14.12;46.49;98088.47;4462999;32;33628;-70
2021/12/02 07:07:13;;;;;;;;;;;;;;;14.52;46.22;98094.66;4472268;32;34482;-71
2021/12/02 07:09:41;;;;;;;;;;;;;;;14.64;46.44;98098.59;4481625;32;33068;-70
2021/12/02 07:12:09;;;;;;;;;;;;;;;14.63;46.17;98101.44;4455998;32;34970;-70
2021/12/02 07:14:36;;;;;;;;;;;;;;;14.65;45.97;98097.56;4468520;32;34760;-70
2021/12/02 07:17:04;;;;;;;;;;;;;;;14.72;45.74;98108.44;4459065;32;33386;-70
2021/12/02 07:19:32;;;;;;;;;;;;;;;14.65;46.37;98105.66;4469069;32;34268;-70
2021/12/02 07:21:59;;;;;;;;;;;;;;;14.31;47.19;98100.63;4475602;32;35415;-70
2021/12/02 07:24:26;;;;;;;;;;;;;;;14.64;46.54;98106.69;4468250;32;34331;-70
2021/12/02 07:27:09;;;;;;;;;;;;;;;14.73;46.50;98106.59;4477226;32;33097;-70
2021/12/02 07:29:39;;;;;;;;;;;;;;;14.80;46.46;98105.72;4468438;32;33468;-70
2021/12/02 07:32:06;;;;;;;;;;;;;;;14.15;48.14;98106.13;4474689;32;34019;-72
2021/12/02 07:34:34;;;;;;;;;;;;;;;14.75;47.04;98113.47;4469697;32;34391;-70
2021/12/02 07:37:02;;;;;;;;;;;;;;;14.68;47.18;98102.59;4472368;32;34366;-70
2021/12/02 07:39:29;;;;;;;;;;;;;;;14.99;46.67;98107.06;4472424;32;34332;-70
2021/12/02 07:41:57;;;;;;;;;;;;;;;15.06;46.24;98108.00;4475725;32;34227;-70
2021/12/02 07:44:25;;;;;;;;;;;;;;;15.17;46.01;98112.09;4473161;32;34230;-70
2021/12/02 07:46:52;;;;;;;;;;;;;;;15.00;46.55;98116.81;4472974;32;33451;-70
2021/12/02 07:49:20;;;;;;;;;;;;;;;14.89;46.86;98118.09;4476926;32;34354;-69
2021/12/02 07:51:47;;;;;;;;;;;;;;;14.92;46.94;98119.56;4477532;32;34376;-70
2021/12/02 07:54:14;;;;;;;;;;;;;;;15.08;46.52;98122.09;4467807;32;32816;-70
2021/12/02 07:56:42;;;;;;;;;;;;;;;14.44;47.55;98111.69;4457034;32;34228;-70
2021/12/02 07:59:09;;;;;;;;;;;;;;;14.68;47.28;98118.75;4468428;32;34535;-69
2021/12/02 08:01:37;;;;;;;;;;;;;;;14.66;47.95;98128.03;4472053;32;34225;-70
2021/12/02 08:04:05;;;;;;;;;;;;;;;14.93;47.33;98123.94;4476174;32;34243;-70
2021/12/02 08:06:32;;;;;;;;;;;;;;;15.06;47.31;98126.84;4474762;32;34307;-68
2021/12/02 08:08:59;;;;;;;;;;;;;;;14.92;47.58;98122.25;4477701;32;33983;-71
2021/12/02 08:11:27;;;;;;;;;;;;;;;15.27;46.71;98125.28;4474454;32;35259;-69
2021/12/02 08:13:56;;;;;;;;;;;;;;;15.25;47.00;98130.03;4474378;32;34075;-69
2021/12/02 08:16:23;;;;;;;;;;;;;;;15.22;47.04;98122.34;4479962;32;33074;-67
2021/12/02 08:18:51;;;;;;;;;;;;;;;15.21;47.15;98117.94;4477070;32;34478;-68
2021/12/02 08:21:20;;;;;;;;;;;;;;;15.21;47.11;98120.63;4473278;32;34210;-68
2021/12/02 08:23:48;;;;;;;;;;;;;;;15.35;46.90;98126.06;4473103;32;34386;-66
2021/12/02 08:26:16;;;;;;;;;;;;;;;15.13;47.24;98130.47;4478599;32;33270;-68
2021/12/02 08:28:43;;;;;;;;;;;;;;;15.19;47.47;98133.47;4473005;32;33859;-68
2021/12/02 08:31:11;;;;;;;;;;;;;;;15.28;47.39;98141.31;4470458;32;34496;-68
2021/12/02 08:33:38;;;;;;;;;;;;;;;14.96;48.24;98147.81;4460167;32;35210;-67
2021/12/02 08:36:06;;;;;;;;;;;;;;;15.25;47.38;98154.28;4476187;32;33700;-66
2021/12/02 08:38:35;;;;;;;;;;;;;;;15.39;46.99;98150.78;4475342;32;34143;-70
2021/12/02 08:41:03;;;;;;;;;;;;;;;15.27;47.25;98150.38;4470914;32;34332;-65
2021/12/02 08:43:30;;;;;;;;;;;;;;;15.17;47.61;98151.69;4466411;32;34960;-66
2021/12/02 08:45:58;;;;;;;;;;;;;;;15.47;46.90;98149.84;4472047;32;32502;-68
2021/12/02 08:48:25;;;;;;;;;;;;;;;15.37;47.21;98158.22;4478773;32;33121;-67
2021/12/02 08:50:52;;;;;;;;;;;;;;;15.41;46.99;98154.16;4473959;32;35301;-68
2021/12/02 08:53:20;;;;;;;;;;;;;;;15.42;47.09;98150.41;4477414;32;34204;-69
2021/12/02 08:55:48;;;;;;;;;;;;;;;15.20;47.67;98154.84;4476659;32;33509;-70
2021/12/02 08:58:16;;;;;;;;;;;;;;;15.38;47.25;98154.50;4477728;32;35154;-70
2021/12/02 09:00:43;;;;;;;;;;;;;;;15.35;47.49;98153.03;4479840;32;34653;-70
2021/12/02 09:03:13;;;;;;;;;;;;;;;15.52;47.14;98159.06;4467998;32;34182;-70
2021/12/02 09:05:40;;;;;;;;;;;;;;;15.54;46.83;98148.94;4474707;32;34111;-70
2021/12/02 09:08:08;;;;;;;;;;;;;;;15.36;47.07;98143.91;4473938;32;33957;-70
2021/12/02 09:10:35;;;;;;;;;;;;;;;15.49;46.91;98142.44;4476435;32;34318;-70
2021/12/02 09:13:10;;;;;;;;;;;;;;;15.51;47.01;98143.09;4475686;32;34318;-68
2021/12/02 09:15:38;;;;;;;;;;;;;;;15.45;47.29;98139.28;4479576;32;33201;-67
2021/12/02 09:18:05;;;;;;;;;;;;;;;15.32;47.80;98136.38;4476727;32;34222;-67
2021/12/02 09:20:32;;;;;;;;;;;;;;;15.40;47.59;98136.28;4477247;32;34603;-65
2021/12/02 09:23:00;;;;;;;;;;;;;;;15.54;47.36;98135.47;4479195;32;35225;-67
2021/12/02 09:25:28;;;;;;;;;;;;;;;15.60;47.33;98136.56;4467745;32;35134;-66
2021/12/02 09:27:55;;;;;;;;;;;;;;;15.73;46.92;98138.63;4472631;32;34165;-65
2021/12/02 09:30:25;;;;;;;;;;;;;;;15.69;46.87;98121.16;4471872;32;35348;-66
2021/12/02 09:32:52;;;;;;;;;;;;;;;15.44;47.80;98118.72;4472330;32;34427;-66
2021/12/02 09:35:20;;;;;;;;;;;;;;;15.66;47.09;98118.81;4477770;32;34038;-73
2021/12/02 09:37:48;;;;;;;;;;;;;;;15.54;47.75;98127.38;4475884;32;35090;-73
2021/12/02 09:40:15;;;;;;;;;;;;;;;15.53;47.86;98112.19;4474957;32;34446;-72
2021/12/02 09:42:42;;;;;;;;;;;;;;;15.54;48.05;98110.37;4475373;32;32985;-72
2021/12/02 09:45:10;;;;;;;;;;;;;;;15.50;48.02;98104.47;4477276;32;32190;-73
2021/12/02 09:47:39;;;;;;;;;;;;;;;15.48;48.30;98101.16;4460610;32;33877;-73
2021/12/02 09:50:13;;;;;;;;;;;;;;;15.51;48.18;98091.88;4478275;32;34057;-72
2021/12/02 09:52:42;;;;;;;;;;;;;;;15.44;48.34;98090.91;4478385;32;33913;-73
2021/12/02 09:55:32;;;;;;;;;;;;;;;15.69;47.62;98091.50;4480294;32;33410;-74
2021/12/02 09:58:03;;;;;;;;;;;;;;;15.56;48.33;98095.66;4475828;32;33945;-72
2021/12/02 10:03:36;;;;;;;;;;;;;;;15.63;48.09;98081.41;4464931;32;34212;-72
2021/12/02 10:06:08;;;;;;;;;;;;;;;15.41;48.85;98089.44;4469984;32;34531;-72
2021/12/02 10:08:41;;;;;;;;;;;;;;;15.55;48.49;98083.19;4457201;32;33608;-72
2021/12/02 10:11:13;;;;;;;;;;;;;;;15.53;48.56;98073.63;4468884;32;33310;-72
2021/12/02 10:13:49;;;;;;;;;;;;;;;15.49;48.64;98070.47;4473891;32;33378;-72
2021/12/02 10:16:23;;;;;;;;;;;;;;;15.57;48.26;98073.06;4463133;32;33213;-72
2021/12/02 10:18:59;;;;;;;;;;;;;;;15.39;49.07;98072.59;4478170;32;35128;-72
2021/12/02 10:21:41;;;;;;;;;;;;;;;15.38;49.29;98070.94;4464810;32;33045;-76
2021/12/02 10:24:11;;;;;;;;;;;;;;;15.26;49.62;98067.88;4463568;32;34232;-72
2021/12/02 10:26:42;;;;;;;;;;;;;;;15.33;49.64;98068.78;4475419;32;32181;-72
2021/12/02 10:29:15;;;;;;;;;;;;;;;15.21;50.09;98061.34;4474178;32;35024;-72
2021/12/02 10:31:47;;;;;;;;;;;;;;;15.38;49.64;98054.78;4477557;32;34235;-72
2021/12/02 10:34:16;;;;;;;;;;;;;;;15.64;49.05;98062.38;4461345;32;34005;-70
2021/12/02 10:36:45;;;;;;;;;;;;;;;15.71;48.94;98057.09;4468809;32;33425;-71
2021/12/02 10:39:20;;;;;;;;;;;;;;;15.54;49.55;98053.75;4471717;32;34315;-72
2021/12/02 10:41:57;;;;;;;;;;;;;;;15.51;49.33;98049.56;4478310;32;34461;-71
2021/12/02 10:44:26;;;;;;;;;;;;;;;15.52;49.16;98053.91;4470688;32;34085;-73
2021/12/02 10:46:54;;;;;;;;;;;;;;;15.49;49.38;98051.59;4469308;32;33314;-73
2021/12/02 10:49:47;;;;;;;;;;;;;;;15.67;48.95;98047.72;4469644;32;34275;-72
2021/12/02 10:52:16;;;;;;;;;;;;;;;15.57;49.28;98040.72;4475364;32;35325;-73
2021/12/02 10:54:47;;;;;;;;;;;;;;;15.46;49.51;98043.03;4458319;32;36385;-74
2021/12/02 10:57:15;;;;;;;;;;;;;;;15.48;49.43;98032.91;4471085;32;32384;-73
2021/12/02 10:59:48;;;;;;;;;;;;;;;15.60;48.98;98028.69;4459658;32;34264;-73
2021/12/02 11:02:17;;;;;;;;;;;;;;;15.57;49.01;98023.72;4462651;32;35214;-73
2021/12/02 11:04:46;;;;;;;;;;;;;;;15.56;49.22;98022.84;4458449;32;34129;-73
2021/12/02 11:07:21;;;;;;;;;;;;;;;15.63;48.84;98025.63;4462494;32;32444;-73
2021/12/02 11:09:50;;;;;;;;;;;;;;;15.48;48.96;98025.66;4472998;32;34076;-73
2021/12/02 11:12:19;;;;;;;;;;;;;;;15.44;48.81;98016.28;4468660;32;34028;-74
2021/12/02 11:14:54;;;;;;;;;;;;;;;15.49;48.72;98013.84;4457138;32;36037;-73
2021/12/02 11:17:21;;;;;;;;;;;;;;;14.98;49.69;98012.94;4470444;32;33307;-73
2021/12/02 11:19:49;;;;;;;;;;;;;;;15.55;48.20;98013.09;4471402;32;33129;-74
2021/12/02 11:22:20;;;;;;;;;;;;;;;15.68;47.99;98012.44;4459294;32;35049;-73
2021/12/02 11:24:48;;;;;;;;;;;;;;;15.67;47.93;98005.41;4476560;32;34969;-73
2021/12/02 11:27:22;;;;;;;;;;;;;;;15.54;48.23;98007.91;4469833;32;31621;-76
2021/12/02 11:29:51;;;;;;;;;;;;;;;15.60;48.01;98010.69;4474761;32;32911;-73
2021/12/02 11:32:28;;;;;;;;;;;;;;;15.61;48.01;98004.25;4468830;32;34241;-74
2021/12/02 11:35:05;;;;;;;;;;;;;;;15.65;47.86;97999.31;4471263;32;33940;-72
2021/12/02 11:37:36;;;;;;;;;;;;;;;15.42;48.49;98004.84;4469442;32;32056;-75
2021/12/02 11:40:05;;;;;;;;;;;;;;;15.67;47.84;98007.25;4472706;32;32632;-73
2021/12/02 11:42:33;;;;;;;;;;;;;;;15.57;48.06;97996.75;4467696;32;34461;-74
2021/12/02 11:45:01;;;;;;;;;;;;;;;15.43;48.37;97990.31;4461672;32;34121;-73
2021/12/02 11:47:28;;;;;;;;;;;;;;;15.54;48.06;98003.34;4461702;32;33472;-73
2021/12/02 11:49:56;;;;;;;;;;;;;;;15.18;49.15;97986.25;4455342;32;32626;-73
2021/12/02 11:52:23;;;;;;;;;;;;;;;15.46;48.40;97992.66;4457884;32;34312;-73
2021/12/02 11:54:51;;;;;;;;;;;;;;;15.54;48.19;97984.47;4459090;32;33924;-75
2021/12/02 11:57:19;;;;;;;;;;;;;;;15.24;48.81;97980.13;4472809;32;33499;-73
2021/12/02 11:59:46;;;;;;;;;;;;;;;15.42;48.33;97985.12;4463629;32;34017;-72
2021/12/02 12:02:16;;;;;;;;;;;;;;;15.49;48.12;97986.88;4475218;32;34322;-73
2021/12/02 12:05:01;;;;;;;;;;;;;;;15.50;48.08;97993.94;4472094;32;34151;-73
2021/12/02 12:07:57;;;;;;;;;;;;;;;15.36;48.37;97992.09;4472509;32;33538;-73
2021/12/02 12:10:32;;;;;;;;;;;;;;;15.33;48.38;97987.94;4455500;32;32713;-73
2021/12/02 12:13:10;;;;;;;;;;;;;;;15.31;48.58;97986.44;4467841;32;34239;-73
2021/12/02 12:15:39;;;;;;;;;;;;;;;15.35;48.54;97982.38;4471281;32;34234;-73
2021/12/02 12:18:08;;;;;;;;;;;;;;;15.07;49.12;97980.31;4460613;32;33970;-74
2021/12/02 12:20:54;;;;;;;;;;;;;;;15.35;48.49;97983.19;4467672;32;35120;-75
2021/12/02 12:23:32;;;;;;;;;;;;;;;14.84;49.49;97966.94;4470212;32;34343;-76
2021/12/02 12:26:07;;;;;;;;;;;;;;;15.35;48.51;97958.94;4479735;32;34106;-74
2021/12/02 12:28:53;;;;;;;;;;;;;;;15.78;47.29;97955.50;4457077;32;32184;-72
2021/12/02 12:31:21;;;;;;;;;;;;;;;15.80;47.16;97957.00;4475242;32;33918;-72
2021/12/02 12:33:49;;;;;;;;;;;;;;;16.06;46.46;97967.22;4471412;32;32974;-72
2021/12/02 12:36:34;;;;;;;;;;;;;;;16.03;46.32;97961.38;4473459;32;35093;-73
2021/12/02 12:39:15;;;;;;;;;;;;;;;16.03;46.43;97951.41;4476239;32;33287;-75
2021/12/02 12:41:43;;;;;;;;;;;;;;;16.24;45.80;97955.09;4469372;32;34460;-74
2021/12/02 12:44:11;;;;;;;;;;;;;;;16.44;45.36;97952.59;4476123;32;33636;-72
2021/12/02 12:46:39;;;;;;;;;;;;;;;16.54;45.21;97953.09;4468669;32;34480;-72
2021/12/02 12:49:17;;;;;;;;;;;;;;;16.88;44.24;97946.88;4457430;32;33265;-72
2021/12/02 12:51:53;;;;;;;;;;;;;;;16.84;44.19;97959.13;4476945;32;35064;-72
2021/12/02 12:54:22;;;;;;;;;;;;;;;17.01;43.84;97965.03;4478282;32;34206;-73
2021/12/02 12:57:02;;;;;;;;;;;;;;;16.72;44.33;97963.38;4461559;32;34376;-73
2021/12/02 12:59:29;;;;;;;;;;;;;;;17.00;43.93;97952.56;4450913;32;33275;-73
2021/12/02 13:02:00;;;;;;;;;;;;;;;17.04;43.81;97950.31;4456678;32;34310;-72
2021/12/02 13:04:29;;;;;;;;;;;;;;;17.29;42.97;97932.56;4472324;32;34749;-72
2021/12/02 13:06:58;;;;;;;;;;;;;;;17.15;43.34;97944.34;4469179;32;35031;-71
2021/12/02 13:09:36;;;;;;;;;;;;;;;16.49;43.92;97940.16;4467916;32;33314;-72
2021/12/02 13:12:05;;;;;;;;;;;;;;;16.09;45.19;97939.00;4476408;32;34752;-73
2021/12/02 13:14:32;;;;;;;;;;;;;;;16.21;45.16;97937.47;4470356;32;34317;-73
2021/12/02 13:17:00;;;;;;;;;;;;;;;17.03;43.13;97930.56;4455001;32;33963;-73
2021/12/02 13:19:28;;;;;;;;;;;;;;;17.16;42.65;97941.44;4453675;32;31923;-71